Flight Track Log - Related Links

Times and Time Zones

All times are in EDT time to prevent confusion due to time zone crossing. See the N201LH flight status page for this flight to view local times or setup timezone preferences in your user account.

Time Position Orientation Groundspeed Altitude Reporting Facility
EDT Latitude Longitude Course Direction KTS MPH feet Rate Location/Type
Thu 11:05:14 AM 38.6667 -90.6500 270° West 68 78 1,100  Level Gateway (St. Louis) TRACON
Thu 11:06:14 AM 38.6667 -90.6833 270° West 81 93 1,800 700 Climbing Gateway (St. Louis) TRACON
Thu 11:07:14 AM 38.6833 -90.7000 322° Northwest 91 105 2,500 650 Climbing Gateway (St. Louis) TRACON
Thu 11:08:14 AM 38.7167 -90.7167 339° North 110 127 3,100 700 Climbing Gateway (St. Louis) TRACON
Thu 11:09:14 AM 38.7500 -90.7333 339° North 104 120 3,900 700 Climbing Gateway (St. Louis) TRACON
Thu 11:10:14 AM 38.7833 -90.7167 21° North 117 135 4,500 600 Climbing Gateway (St. Louis) TRACON
Thu 11:11:14 AM 38.8167 -90.7000 21° North 122 140 5,100 600 Climbing Gateway (St. Louis) TRACON
Thu 11:12:14 AM 38.8333 -90.6833 38° Northeast 124 143 5,700 550 Climbing Gateway (St. Louis) TRACON
Thu 11:13:14 AM 38.8667 -90.6500 38° Northeast 120 138 6,200 500 Climbing Gateway (St. Louis) TRACON
Thu 11:14:14 AM 38.8833 -90.6167 57° Northeast 126 145 6,700 400 Climbing Gateway (St. Louis) TRACON
Thu 11:15:14 AM 38.9000 -90.5833 57° Northeast 131 151 7,000 150 Climbing Gateway (St. Louis) TRACON
Thu 11:16:14 AM 38.9333 -90.5500 38° Northeast 156 180 7,000  Level Gateway (St. Louis) TRACON
Thu 11:16:32 AM 38.9383 -90.5436 45° Northeast 138 159 7,000  Level Kansas City Center
Thu 11:17:34 AM 38.9719 -90.5028 43° Northeast 155 178 7,000  Level Kansas City Center
Thu 11:18:35 AM 39.0039 -90.4592 47° Northeast 164 189 7,000  Level Kansas City Center
Thu 11:19:37 AM 39.0414 -90.4069 47° Northeast 166 191 7,000  Level Kansas City Center
Thu 11:20:39 AM 39.0706 -90.3617 50° Northeast 165 190 7,000  Level Kansas City Center
Thu 11:21:41 AM 39.1008 -90.3186 48° Northeast 164 189 7,000  Level Kansas City Center
Thu 11:22:43 AM 39.1314 -90.2761 47° Northeast 162 186 7,000  Level Kansas City Center
Thu 11:23:45 AM 39.1614 -90.2342 47° Northeast 159 183 7,000  Level Kansas City Center
Thu 11:24:47 AM 39.1911 -90.1928 47° Northeast 158 182 7,000  Level Kansas City Center
Thu 11:25:49 AM 39.2203 -90.1508 48° Northeast 158 182 7,000  Level Kansas City Center
Thu 11:27:53 AM 39.2869 -90.0567 48° Northeast 162 186 7,000  Level Kansas City Center
Thu 11:28:55 AM 39.3175 -90.0131 48° Northeast 163 188 7,000  Level Kansas City Center
Thu 11:29:57 AM 39.3481 -89.9706 47° Northeast 162 186 7,000  Level Kansas City Center
Thu 11:30:59 AM 39.3772 -89.9272 49° Northeast 161 185 7,000  Level Kansas City Center
Thu 11:32:01 AM 39.4067 -89.8850 48° Northeast 159 183 7,000  Level Kansas City Center
Thu 11:33:03 AM 39.4436 -89.8325 48° Northeast 163 188 7,000  Level Kansas City Center
Thu 11:34:05 AM 39.4725 -89.7892 49° Northeast 161 185 7,000  Level Kansas City Center
Thu 11:35:06 AM 39.5022 -89.7494 46° Northeast 157 181 7,000  Level Kansas City Center
Thu 11:36:08 AM 39.5319 -89.7042 50° Northeast 161 185 7,000  Level Kansas City Center
Thu 11:37:10 AM 39.5617 -89.6639 46° Northeast 157 181 7,000  Level Kansas City Center
Thu 11:38:12 AM 39.5917 -89.6203 48° Northeast 160 184 7,000  Level Kansas City Center
Thu 11:39:14 AM 39.6275 -89.5686 48° Northeast 161 185 7,000  Level Kansas City Center
Thu 11:40:16 AM 39.6572 -89.5256 48° Northeast 161 185 7,000  Level Kansas City Center
Thu 11:41:18 AM 39.6864 -89.4833 48° Northeast 158 182 7,000  Level Kansas City Center
Thu 11:42:20 AM 39.7139 -89.4447 47° Northeast 159 183 7,000  Level Kansas City Center
Thu 11:43:22 AM 39.7478 -89.3958 48° Northeast 154 177 7,000  Level Kansas City Center
Thu 11:44:24 AM 39.7778 -89.3522 48° Northeast 159 183 7,000  Level Kansas City Center
Thu 11:45:26 AM 39.8061 -89.3122 47° Northeast 154 177 7,000  Level Kansas City Center
Thu 11:46:28 AM 39.8342 -89.2714 48° Northeast 152 175 7,000  Level Kansas City Center
Thu 11:47:30 AM 39.8608 -89.2319 49° Northeast 148 170 7,000 48 Level Kansas City Center
Thu 11:48:32 AM 39.8892 -89.1914 48° Northeast 150 173 7,100  Climbing Kansas City Center
Thu 11:49:33 AM 39.9233 -89.1419 48° Northeast 152 175 7,000 -49 Descending Kansas City Center
Thu 11:50:35 AM 39.9522 -89.0986 49° Northeast 156 180 7,000  Level Kansas City Center
Thu 11:51:37 AM 39.9814 -89.0547 49° Northeast 160 184 7,000  Level Kansas City Center
Thu 11:52:39 AM 40.0114 -89.0128 47° Northeast 159 183 7,000  Level Kansas City Center
Thu 11:53:41 AM 40.0392 -88.9692 50° Northeast 158 182 7,000  Level Kansas City Center
Thu 11:54:43 AM 40.0694 -88.9272 47° Northeast 159 183 7,000  Level Kansas City Center
Thu 11:55:45 AM 40.1044 -88.8744 49° Northeast 159 183 7,000  Level Kansas City Center
Thu 11:56:47 AM 40.1342 -88.8325 47° Northeast 159 183 7,000  Level Kansas City Center
Thu 11:57:12 AM 40.1453 -88.8156 49° Northeast 157 181 7,000  Level Chicago Center
Thu 11:58:14 AM 40.1744 -88.7719 49° Northeast 159 183 7,000  Level Chicago Center
Thu 11:59:16 AM 40.2033 -88.7294 48° Northeast 157 181 7,000  Level Chicago Center
Thu 12:00:18 PM 40.2322 -88.6861 49° Northeast 158 182 7,000  Level Chicago Center
Thu 12:01:20 PM 40.2619 -88.6433 48° Northeast 158 182 7,000  Level Chicago Center
Thu 12:02:22 PM 40.2969 -88.5903 49° Northeast 160 184 7,000  Level Chicago Center
Thu 12:03:24 PM 40.3258 -88.5481 48° Northeast 157 181 7,000  Level Chicago Center
Thu 12:04:26 PM 40.3569 -88.5008 49° Northeast 157 181 7,000  Level Chicago Center
Thu 12:05:28 PM 40.3850 -88.4583 49° Northeast 156 180 7,000  Level Chicago Center
Thu 12:06:30 PM 40.4139 -88.4153 49° Northeast 157 181 7,000  Level Chicago Center
Thu 12:07:31 PM 40.4428 -88.3719 49° Northeast 158 182 7,000  Level Chicago Center
Thu 12:08:33 PM 40.4731 -88.3289 47° Northeast 160 184 7,000  Level Chicago Center
Thu 12:09:35 PM 40.5022 -88.2850 49° Northeast 160 184 7,000  Level Chicago Center
Thu 12:10:37 PM 40.5367 -88.2322 49° Northeast 160 184 7,000  Level Chicago Center
Thu 12:11:39 PM 40.5656 -88.1903 48° Northeast 157 181 7,000  Level Chicago Center
Thu 12:12:41 PM 40.5931 -88.1467 50° Northeast 157 181 7,000  Level Chicago Center
Thu 12:13:43 PM 40.6236 -88.1067 45° Northeast 157 181 7,000  Level Chicago Center
Thu 12:14:45 PM 40.6494 -88.0592 54° Northeast 158 182 7,000  Level Chicago Center
Thu 12:15:47 PM 40.6844 -88.0100 47° Northeast 155 178 7,000  Level Chicago Center
Thu 12:16:49 PM 40.7128 -87.9672 49° Northeast 155 178 7,000  Level Chicago Center
Thu 12:17:51 PM 40.7400 -87.9236 51° Northeast 155 178 7,000  Level Chicago Center
Thu 12:18:53 PM 40.7675 -87.8811 49° Northeast 155 178 7,000  Level Chicago Center
Thu 12:19:55 PM 40.7961 -87.8383 49° Northeast 155 178 7,000  Level Chicago Center
Thu 12:20:57 PM 40.8306 -87.7878 48° Northeast 155 178 7,000  Level Chicago Center
Thu 12:21:59 PM 40.8586 -87.7444 49° Northeast 156 180 7,000  Level Chicago Center
Thu 12:23:01 PM 40.8869 -87.7022 48° Northeast 155 178 7,000  Level Chicago Center
Thu 12:24:03 PM 40.9150 -87.6606 48° Northeast 154 177 7,000  Level Chicago Center
Thu 12:25:05 PM 40.9439 -87.6192 47° Northeast 155 178 7,000  Level Chicago Center
Thu 12:26:07 PM 40.9778 -87.5706 47° Northeast 154 177 7,000 48 Level Chicago Center
Thu 12:27:09 PM 41.0033 -87.5261 53° Northeast 154 177 7,100 48 Climbing Chicago Center
Thu 12:28:11 PM 41.0294 -87.4803 53° Northeast 155 178 7,100  Level Chicago Center
Thu 12:29:13 PM 41.0578 -87.4378 49° Northeast 155 178 7,100  Level Chicago Center
Thu 12:30:15 PM 41.0872 -87.3956 47° Northeast 156 180 7,100  Level Chicago Center
Thu 12:31:17 PM 41.1133 -87.3506 52° Northeast 156 180 7,100  Level Chicago Center
Thu 12:32:19 PM 41.1478 -87.3008 47° Northeast 153 176 7,100 -48 Level Chicago Center
Thu 12:33:21 PM 41.1750 -87.2572 50° Northeast 153 176 7,000  Descending Chicago Center
Thu 12:34:23 PM 41.2033 -87.2125 50° Northeast 157 181 7,100 48 Climbing Chicago Center
Thu 12:35:25 PM 41.2325 -87.1708 47° Northeast 155 178 7,100  Level Chicago Center
Thu 12:36:27 PM 41.2542 -87.1231 59° Northeast 153 176 7,100 -48 Level Chicago Center
Thu 12:37:29 PM 41.2889 -87.0706 49° Northeast 156 180 7,000 -48 Descending Chicago Center
Thu 12:38:31 PM 41.3183 -87.0283 47° Northeast 157 181 7,000  Level Chicago Center
Thu 12:39:33 PM 41.3461 -86.9842 50° Northeast 157 181 7,000  Level Chicago Center
Thu 12:40:35 PM 41.3742 -86.9422 48° Northeast 154 177 7,000  Level Chicago Center
Thu 12:41:37 PM 41.4025 -86.8983 49° Northeast 156 180 7,000  Level Chicago Center
Thu 12:42:39 PM 41.4372 -86.8483 47° Northeast 155 178 7,000 48 Level Chicago Center
Thu 12:43:41 PM 41.4653 -86.8078 47° Northeast 152 175 7,100  Climbing Chicago Center
Thu 12:44:43 PM 41.4903 -86.7625 54° Northeast 153 176 7,000 -48 Descending Chicago Center
Thu 12:45:45 PM 41.5158 -86.7175 53° Northeast 153 176 7,000  Level Chicago Center
Thu 12:46:47 PM 41.5456 -86.6694 50° Northeast 154 177 7,000  Level Chicago Center
Thu 12:47:49 PM 41.5739 -86.6258 49° Northeast 155 178 7,000  Level Chicago Center
Thu 12:48:51 PM 41.6033 -86.5828 48° Northeast 156 180 7,000  Level Chicago Center
Thu 12:49:53 PM 41.6311 -86.5381 50° Northeast 156 180 7,000  Level Chicago Center
Thu 12:51:00 PM 41.6610 -86.4877 52° Northeast  Level FlightAware Approximate
Thu 12:51:57 PM 41.6917 -86.4431 52° Northeast 153 176 7,000  Level Chicago Center
Thu 12:52:59 PM 41.7186 -86.3978 51° Northeast 154 177 7,000  Level Chicago Center
Thu 12:54:01 PM 41.7456 -86.3531 51° Northeast 154 177 7,000 48 Level Chicago Center
Thu 12:55:03 PM 41.7725 -86.3094 50° Northeast 152 175 7,100  Climbing Chicago Center
Thu 12:57:07 PM 41.8244 -86.2203 52° Northeast 155 178 7,000 -32 Descending Chicago Center
Thu 12:58:09 PM 41.8608 -86.1706 45° Northeast 156 180 7,000  Level Chicago Center
Thu 12:59:11 PM 41.8886 -86.1233 52° Northeast 160 184 7,000  Level Chicago Center
Thu 01:00:13 PM 41.9139 -86.0778 53° Northeast 155 178 7,000  Level Chicago Center
Thu 01:01:15 PM 41.9419 -86.0308 51° Northeast 160 184 7,000  Level Chicago Center
Thu 01:02:16 PM 41.9725 -85.9897 45° Northeast 157 181 7,000  Level Chicago Center
Thu 01:03:18 PM 41.9989 -85.9425 53° Northeast 158 182 7,000  Level Chicago Center
Thu 01:04:20 PM 42.0233 -85.8956 55° Northeast 155 178 7,000  Level Chicago Center
Thu 01:05:22 PM 42.0583 -85.8444 47° Northeast 155 178 7,000  Level Chicago Center
Thu 01:06:24 PM 42.0886 -85.8014 47° Northeast 157 181 7,000 -48 Level Chicago Center
Thu 01:07:26 PM 42.1161 -85.7558 51° Northeast 157 181 6,900  Descending Chicago Center
Thu 01:08:28 PM 42.1417 -85.7094 53° Northeast 155 178 7,000 48 Climbing Chicago Center
Thu 01:09:30 PM 42.1703 -85.6644 49° Northeast 156 180 7,000  Level Chicago Center
Thu 01:10:32 PM 42.2019 -85.6208 46° Northeast 161 185 7,000  Level Chicago Center
Thu 01:11:34 PM 42.2336 -85.5803 43° Northeast 160 184 7,000  Level Chicago Center
Thu 01:12:36 PM 42.2672 -85.5231 52° Northeast 161 185 7,000  Level Chicago Center
Thu 01:13:38 PM 42.2931 -85.4814 50° Northeast 162 186 7,000  Level Chicago Center
Thu 01:14:40 PM 42.3225 -85.4356 49° Northeast 162 186 7,000  Level Chicago Center
Thu 01:15:42 PM 42.3622 -85.3867 42° Northeast 162 186 7,000  Level Chicago Center
Thu 01:16:44 PM 42.3919 -85.3433 47° Northeast 159 183 7,000  Level Chicago Center
Thu 01:17:46 PM 42.4228 -85.3006 46° Northeast 159 183 7,000  Level Chicago Center
Thu 01:18:48 PM 42.4536 -85.2583 45° Northeast 158 182 7,000  Level Chicago Center
Thu 01:19:50 PM 42.4833 -85.2150 47° Northeast 159 183 7,000  Level Chicago Center
Thu 01:20:52 PM 42.5200 -85.1614 47° Northeast 161 185 7,000 48 Level Chicago Center
Thu 01:21:54 PM 42.5506 -85.1169 47° Northeast 161 185 7,100  Climbing Chicago Center
Thu 01:22:55 PM 42.5819 -85.0739 45° Northeast 161 185 7,000  Descending Chicago Center
Thu 01:23:57 PM 42.6139 -85.0317 44° Northeast 160 184 7,100 48 Climbing Chicago Center
Thu 01:25:00 PM 42.6461 -84.9908 43° Northeast 159 183 7,100  Level Chicago Center
Thu 01:26:02 PM 42.6792 -84.9483 43° Northeast 162 186 7,100  Level Chicago Center
Thu 01:27:04 PM 42.7139 -84.8956 48° Northeast 158 182 7,100  Level Chicago Center
Thu 01:28:06 PM 42.7447 -84.8533 45° Northeast 156 180 7,100  Level Chicago Center
Thu 01:29:08 PM 42.7728 -84.8094 49° Northeast 155 178 7,100  Level Chicago Center
Thu 01:30:10 PM 42.8047 -84.7672 44° Northeast 159 183 7,100  Level Chicago Center
Thu 01:31:12 PM 42.8358 -84.7244 45° Northeast 159 183 7,100  Level Chicago Center
Thu 01:32:14 PM 42.8633 -84.6808 49° Northeast 154 177 7,100 -48 Level Chicago Center
Thu 01:33:16 PM 42.9014 -84.6297 45° Northeast 158 182 7,000 -97 Descending Chicago Center

Login

Don't have an account? Register now (free) for customized features, flight alerts, and more!